Time;durP1;ratioP1;P1;durP2;ratioP2;P2;SDS_P1;SDS_P2;PMS_P1;PMS_P2;Temp;Humidity;BMP_temperature;BMP_pressure;BME280_temperature;BME280_humidity;BME280_pressure;Samples;Min_cycle;Max_cycle;Signal;HPM_P1;HPM_P2
2023/12/26 00:00:14;;;;;;;0.08;0.08;;;;;;;21.32;43.86;99442.88;4486046;28;20038;-50
2023/12/26 00:02:28;;;;;;;0.10;0.10;;;;;;;21.33;44.10;99455.97;4471320;28;20035;-48
2023/12/26 00:04:38;;;;;;;0.20;0.10;;;;;;;21.34;44.00;99431.81;4471094;28;20759;-49
2023/12/26 00:06:49;;;;;;;0.10;0.10;;;;;;;21.35;44.35;99442.06;4471190;28;20027;-50
2023/12/26 00:08:59;;;;;;;0.10;0.10;;;;;;;21.35;43.83;99435.47;4471166;28;20039;-49
2023/12/26 00:11:10;;;;;;;0.00;0.00;;;;;;;21.35;43.91;99433.44;4470736;28;20109;-49
2023/12/26 00:13:21;;;;;;;0.10;0.10;;;;;;;21.35;44.25;99424.84;4470891;28;20130;-49
2023/12/26 00:15:31;;;;;;;0.05;0.05;;;;;;;21.35;43.87;99419.09;4470042;28;20039;-50
2023/12/26 00:17:42;;;;;;;0.10;0.10;;;;;;;21.36;43.70;99425.66;4476447;28;20038;-50
2023/12/26 00:19:53;;;;;;;0.10;0.10;;;;;;;21.35;43.87;99415.41;4477210;28;20394;-48
2023/12/26 00:22:03;;;;;;;0.05;0.05;;;;;;;21.36;43.87;99419.94;4476829;28;20031;-49
2023/12/26 00:24:14;;;;;;;0.22;0.10;;;;;;;21.35;43.88;99412.53;4477118;28;20034;-49
2023/12/26 00:26:24;;;;;;;0.08;0.03;;;;;;;21.35;43.44;99407.63;4476715;28;20388;-48
2023/12/26 00:28:39;;;;;;;0.00;0.00;;;;;;;21.35;43.68;99415.41;4476424;28;20035;-50
2023/12/26 00:30:50;;;;;;;0.10;0.10;;;;;;;21.35;43.75;99416.22;4491466;28;20042;-48
2023/12/26 00:33:00;;;;;;;0.15;0.10;;;;;;;21.35;43.91;99412.53;4476830;28;20113;-49
2023/12/26 00:35:13;;;;;;;0.17;0.17;;;;;;;21.35;43.54;99406.78;4476241;28;20035;-49
2023/12/26 00:37:24;;;;;;;0.00;0.00;;;;;;;21.34;43.44;99414.59;4476722;28;20026;-49
2023/12/26 00:39:35;;;;;;;0.00;0.00;;;;;;;21.35;43.47;99419.09;4475770;28;20042;-50
2023/12/26 00:41:46;;;;;;;0.40;0.10;;;;;;;21.32;43.44;99419.06;4475321;28;20439;-49
2023/12/26 00:43:56;;;;;;;0.20;0.10;;;;;;;21.34;43.72;99411.72;4477748;28;20039;-49
2023/12/26 00:46:07;;;;;;;0.17;0.10;;;;;;;21.34;43.59;99411.72;4476845;28;20042;-49
2023/12/26 00:48:17;;;;;;;0.10;0.10;;;;;;;21.34;43.24;99408.84;4476005;28;20054;-49
2023/12/26 00:50:27;;;;;;;0.00;0.00;;;;;;;21.34;43.05;99399.41;4475842;28;20023;-50
2023/12/26 00:52:38;;;;;;;0.10;0.10;;;;;;;21.33;43.38;99403.47;4475161;28;20126;-48
2023/12/26 00:54:49;;;;;;;0.10;0.10;;;;;;;21.34;43.28;99417.47;4477721;28;20046;-49
2023/12/26 00:57:00;;;;;;;0.10;0.10;;;;;;;21.34;43.19;99396.53;4475620;28;20035;-49
2023/12/26 00:59:11;;;;;;;0.20;0.20;;;;;;;21.34;43.04;99410.88;4476934;28;20054;-48
2023/12/26 01:01:21;;;;;;;0.10;0.10;;;;;;;21.33;43.31;99398.56;4476740;28;20081;-48
2023/12/26 01:03:32;;;;;;;0.10;0.10;;;;;;;21.33;43.65;99398.56;4476160;28;20034;-50
2023/12/26 01:05:43;;;;;;;0.10;0.10;;;;;;;21.33;43.10;99404.31;4474934;28;20034;-49
2023/12/26 01:07:53;;;;;;;0.10;0.10;;;;;;;21.33;43.56;99414.97;4475960;28;20051;-49
2023/12/26 01:10:05;;;;;;;0.10;0.10;;;;;;;21.33;43.50;99403.47;4476340;28;20077;-49
2023/12/26 01:12:15;;;;;;;0.10;0.10;;;;;;;21.32;43.41;99408.41;4476197;28;20050;-48
2023/12/26 01:14:27;;;;;;;0.10;0.10;;;;;;;21.32;43.17;99414.16;4475790;28;20046;-50
2023/12/26 01:16:39;;;;;;;0.10;0.10;;;;;;;21.32;43.54;99414.16;4476058;28;20130;-49
2023/12/26 01:18:49;;;;;;;0.10;0.10;;;;;;;21.33;43.06;99423.56;4474975;28;20668;-49
2023/12/26 01:21:00;;;;;;;0.00;0.00;;;;;;;21.33;42.92;99426.44;4476270;28;20023;-49
2023/12/26 01:23:10;;;;;;;0.10;0.10;;;;;;;21.32;43.20;99434.25;4474479;28;20411;-49
2023/12/26 01:25:21;;;;;;;0.10;0.10;;;;;;;21.32;43.22;99430.56;4475838;28;20495;-48
2023/12/26 01:27:33;;;;;;;0.10;0.10;;;;;;;21.32;43.36;99433.41;4473703;28;20042;-48
2023/12/26 01:29:43;;;;;;;0.10;0.10;;;;;;;21.32;43.17;99419.06;4473416;28;20110;-49
2023/12/26 01:31:54;;;;;;;0.10;0.10;;;;;;;21.31;43.51;99432.59;4472240;28;20122;-49
2023/12/26 01:34:05;;;;;;;0.10;0.10;;;;;;;21.31;43.48;99435.47;4474767;28;20081;-48
2023/12/26 01:36:15;;;;;;;0.10;0.10;;;;;;;21.32;43.25;99433.41;4487686;28;20198;-49
2023/12/26 01:38:25;;;;;;;0.00;0.00;;;;;;;21.31;43.53;99435.47;4473029;28;20039;-49
2023/12/26 01:40:40;;;;;;;0.10;0.10;;;;;;;21.31;43.31;99441.19;4471286;28;20096;-51
2023/12/26 01:42:51;;;;;;;0.10;0.10;;;;;;;21.33;43.15;99443.66;4471580;28;20723;-50
2023/12/26 01:45:01;;;;;;;0.30;0.00;;;;;;;21.31;43.49;99452.69;4472965;28;20097;-49
2023/12/26 01:47:12;;;;;;;0.00;0.00;;;;;;;21.31;43.33;99452.69;4473383;28;20066;-48
2023/12/26 01:49:22;;;;;;;0.10;0.10;;;;;;;21.32;43.63;99465.81;4472927;28;20117;-48
2023/12/26 01:51:34;;;;;;;0.10;0.10;;;;;;;21.30;43.51;99468.25;4487732;28;20027;-49
2023/12/26 01:53:44;;;;;;;0.10;0.10;;;;;;;21.30;43.48;99459.66;4472673;28;20039;-49
2023/12/26 01:55:56;;;;;;;0.10;0.10;;;;;;;21.30;43.73;99459.66;4474298;28;20027;-49
2023/12/26 01:58:07;;;;;;;0.08;0.08;;;;;;;21.30;43.70;99459.66;4487590;28;20610;-50
2023/12/26 02:00:18;;;;;;;0.10;0.10;;;;;;;21.30;43.39;99468.25;4471106;28;20042;-48
2023/12/26 02:02:31;;;;;;;0.10;0.10;;;;;;;21.29;43.56;99460.88;4472892;28;20046;-49
2023/12/26 02:04:42;;;;;;;0.10;0.10;;;;;;;21.30;43.43;99470.28;4487585;28;20578;-48
2023/12/26 02:06:55;;;;;;;0.10;0.10;;;;;;;21.29;43.38;99469.50;4472510;28;20042;-49
2023/12/26 02:09:06;;;;;;;0.10;0.10;;;;;;;21.30;43.29;99473.16;4487624;28;20893;-50
2023/12/26 02:11:16;;;;;;;0.08;0.08;;;;;;;21.29;43.49;99472.38;4487383;28;20049;-49
2023/12/26 02:13:27;;;;;;;0.05;0.05;;;;;;;21.30;43.46;99470.28;4471263;28;20066;-49
2023/12/26 02:15:39;;;;;;;0.00;0.00;;;;;;;21.29;43.31;99463.75;4473020;28;20818;-49
2023/12/26 02:17:50;;;;;;;0.10;0.10;;;;;;;21.30;43.07;99455.94;4470417;28;20027;-49
2023/12/26 02:20:01;;;;;;;0.10;0.10;;;;;;;21.29;43.26;99460.88;4472071;28;20043;-49
2023/12/26 02:22:12;;;;;;;0.10;0.10;;;;;;;21.29;43.08;99455.16;4487482;28;20035;-48
2023/12/26 02:24:24;;;;;;;0.10;0.10;;;;;;;21.29;43.17;99451.44;4471048;28;20875;-48
2023/12/26 02:26:38;;;;;;;0.05;0.05;;;;;;;21.28;42.83;99447.75;4473744;28;20062;-48
2023/12/26 02:28:50;;;;;;;0.20;0.20;;;;;;;21.29;42.91;99460.06;4471951;28;20907;-49
2023/12/26 02:31:02;;;;;;;0.10;0.10;;;;;;;21.29;42.94;99458.00;4471834;28;20058;-50
2023/12/26 02:33:14;;;;;;;0.00;0.00;;;;;;;21.28;42.61;99459.22;4472383;28;20047;-48
2023/12/26 02:35:25;;;;;;;0.00;0.00;;;;;;;21.29;42.64;99465.78;4487409;28;20132;-50
2023/12/26 02:37:37;;;;;;;0.08;0.08;;;;;;;21.27;43.04;99451.00;4473884;28;20081;-49
2023/12/26 02:39:50;;;;;;;0.10;0.10;;;;;;;21.29;42.84;99466.63;4468345;28;20027;-49
2023/12/26 02:42:00;;;;;;;0.10;0.10;;;;;;;21.26;42.69;99460.84;4486923;28;20157;-52
2023/12/26 02:44:11;;;;;;;0.10;0.10;;;;;;;21.28;42.26;99461.28;4470699;28;20432;-49
2023/12/26 02:46:21;;;;;;;0.05;0.00;;;;;;;21.28;42.27;99470.69;4471342;28;20071;-50
2023/12/26 02:48:32;;;;;;;0.10;0.05;;;;;;;21.28;42.22;99476.44;4471895;28;20556;-48
2023/12/26 02:50:43;;;;;;;0.10;0.10;;;;;;;21.28;42.56;99459.22;4472271;28;20042;-49
2023/12/26 02:52:54;;;;;;;0.10;0.10;;;;;;;21.28;42.63;99470.69;4472120;28;20047;-49
2023/12/26 02:55:04;;;;;;;0.10;0.10;;;;;;;21.29;42.48;99466.63;4471184;28;20034;-48
2023/12/26 02:57:15;;;;;;;0.10;0.10;;;;;;;21.28;42.53;99482.19;4471389;28;20692;-48
2023/12/26 02:59:26;;;;;;;0.00;0.00;;;;;;;21.28;42.43;99464.97;4486605;28;20110;-50
2023/12/26 03:01:36;;;;;;;0.10;0.10;;;;;;;21.27;42.55;99469.06;4472406;28;20041;-49
2023/12/26 03:03:47;;;;;;;0.10;0.10;;;;;;;21.27;42.24;99473.97;4470457;28;20039;-49
2023/12/26 03:05:57;;;;;;;0.10;0.10;;;;;;;21.27;42.32;99479.72;4469903;28;20117;-52
2023/12/26 03:08:08;;;;;;;0.10;0.10;;;;;;;21.28;42.39;99472.78;4470718;28;20070;-49
2023/12/26 03:10:18;;;;;;;0.00;0.00;;;;;;;21.26;41.83;99476.03;4472162;28;20054;-49
2023/12/26 03:12:28;;;;;;;0.10;0.10;;;;;;;21.26;41.98;99473.16;4471124;28;20073;-49
2023/12/26 03:14:39;;;;;;;0.10;0.10;;;;;;;21.27;41.85;99468.22;4470303;28;20037;-48
2023/12/26 03:16:50;;;;;;;0.00;0.00;;;;;;;21.27;42.01;99491.19;4471838;28;20039;-49
2023/12/26 03:19:00;;;;;;;0.10;0.10;;;;;;;21.25;42.06;99476.44;4471899;28;20043;-49
2023/12/26 03:21:10;;;;;;;0.10;0.10;;;;;;;21.26;42.13;99476.03;4472367;28;20031;-49
2023/12/26 03:23:21;;;;;;;0.05;0.05;;;;;;;21.26;41.79;99478.91;4453421;28;20035;-48
2023/12/26 03:25:31;;;;;;;0.10;0.10;;;;;;;21.25;41.93;99471.50;4486306;28;20495;-50
2023/12/26 03:27:42;;;;;;;0.10;0.10;;;;;;;21.25;42.22;99474.38;4472046;28;20026;-48
2023/12/26 03:29:53;;;;;;;0.17;0.03;;;;;;;21.25;42.15;99477.25;4471266;28;20046;-49
2023/12/26 03:32:04;;;;;;;0.10;0.10;;;;;;;21.25;41.72;99474.38;4471658;28;20498;-49
2023/12/26 03:34:14;;;;;;;0.00;0.00;;;;;;;21.25;41.77;99482.97;4470939;28;20023;-49
2023/12/26 03:36:25;;;;;;;0.10;0.10;;;;;;;21.26;41.66;99490.38;4470790;28;20045;-49
2023/12/26 03:38:36;;;;;;;0.20;0.10;;;;;;;21.25;41.64;99480.09;4472359;28;20035;-49
2023/12/26 03:40:47;;;;;;;0.00;0.00;;;;;;;21.25;41.62;99493.66;4486084;28;21542;-49
2023/12/26 03:42:58;;;;;;;0.10;0.10;;;;;;;21.25;41.55;99488.72;4470070;28;20039;-48
2023/12/26 03:45:09;;;;;;;0.08;0.08;;;;;;;21.25;41.67;99482.97;4472063;28;20134;-48
2023/12/26 03:47:19;;;;;;;0.20;0.10;;;;;;;21.25;41.56;99494.47;4469485;28;20121;-48
2023/12/26 03:49:32;;;;;;;0.10;0.10;;;;;;;21.25;41.95;99476.44;4471328;28;20035;-48
2023/12/26 03:51:44;;;;;;;0.10;0.10;;;;;;;21.26;41.68;99480.94;4470458;28;20045;-48
2023/12/26 03:53:54;;;;;;;0.03;0.03;;;;;;;21.24;41.59;99481.34;4485887;28;20023;-48
2023/12/26 03:56:05;;;;;;;0.10;0.10;;;;;;;21.24;41.48;99481.34;4470579;28;20043;-49
2023/12/26 03:58:15;;;;;;;0.35;0.03;;;;;;;21.26;41.62;99489.56;4485762;28;20037;-49
2023/12/26 04:00:26;;;;;;;0.20;0.10;;;;;;;21.23;41.54;99491.16;4471035;28;20062;-49
2023/12/26 04:02:36;;;;;;;0.00;0.00;;;;;;;21.24;41.67;99492.81;4485832;28;20117;-49
2023/12/26 04:04:47;;;;;;;0.00;0.00;;;;;;;21.24;41.47;99500.59;4471439;28;20030;-49
2023/12/26 04:06:58;;;;;;;0.10;0.10;;;;;;;21.23;41.36;99498.97;4469108;28;20395;-48
2023/12/26 04:09:09;;;;;;;0.00;0.00;;;;;;;21.24;41.56;99500.59;4485750;28;20038;-50
2023/12/26 04:11:19;;;;;;;0.00;0.00;;;;;;;21.23;41.79;99496.91;4471286;28;20035;-50
2023/12/26 04:13:31;;;;;;;0.00;0.00;;;;;;;21.23;41.79;99508.38;4472983;28;20049;-48
2023/12/26 04:15:41;;;;;;;0.10;0.10;;;;;;;21.23;41.48;99513.31;4470339;28;20029;-50
2023/12/26 04:17:52;;;;;;;0.10;0.10;;;;;;;21.23;41.41;99505.50;4470883;28;20038;-49
2023/12/26 04:20:04;;;;;;;0.00;0.00;;;;;;;21.23;41.57;99516.97;4472009;28;20130;-48
2023/12/26 04:22:15;;;;;;;0.08;0.08;;;;;;;21.22;41.54;99523.97;4469518;28;20609;-51
2023/12/26 04:24:25;;;;;;;0.08;0.08;;;;;;;21.23;41.73;99524.78;4485802;28;21089;-49
2023/12/26 04:26:36;;;;;;;0.00;0.00;;;;;;;21.23;41.25;99519.84;4485463;28;20034;-48
2023/12/26 04:28:47;;;;;;;0.00;0.00;;;;;;;21.23;41.29;99524.78;4471129;28;20499;-49
2023/12/26 04:30:57;;;;;;;0.10;0.10;;;;;;;21.22;41.30;99509.59;4470614;28;20495;-49
2023/12/26 04:33:10;;;;;;;0.10;0.10;;;;;;;21.23;41.63;99510.44;4470465;28;20059;-49
2023/12/26 04:35:20;;;;;;;0.10;0.10;;;;;;;21.22;41.70;99526.00;4451799;28;20082;-48
2023/12/26 04:37:31;;;;;;;0.10;0.10;;;;;;;21.22;41.38;99526.00;4471636;28;20038;-49
2023/12/26 04:39:42;;;;;;;0.00;0.00;;;;;;;21.21;41.34;99530.94;4469177;28;20031;-52
2023/12/26 04:41:53;;;;;;;0.10;0.10;;;;;;;21.22;41.30;99526.81;4469705;28;20507;-53
2023/12/26 04:44:03;;;;;;;0.10;0.10;;;;;;;21.21;41.33;99528.06;4470185;28;20484;-51
2023/12/26 04:46:19;;;;;;;0.10;0.10;;;;;;;21.22;41.46;99529.69;4471583;28;20063;-50
2023/12/26 04:48:29;;;;;;;0.00;0.00;;;;;;;21.21;41.32;99530.09;4468175;28;20078;-49
2023/12/26 04:50:40;;;;;;;0.10;0.10;;;;;;;21.22;41.70;99546.06;4471875;28;20110;-51
2023/12/26 04:52:50;;;;;;;0.10;0.10;;;;;;;21.21;41.69;99528.06;4470850;28;20047;-54
2023/12/26 04:55:01;;;;;;;0.00;0.00;;;;;;;21.21;41.48;99530.09;4470029;28;20052;-49
2023/12/26 04:57:12;;;;;;;0.10;0.10;;;;;;;21.22;41.37;99540.34;4470090;28;20127;-50
2023/12/26 04:59:23;;;;;;;0.10;0.10;;;;;;;21.22;41.52;99544.03;4470981;28;20041;-50
2023/12/26 05:01:40;;;;;;;0.10;0.10;;;;;;;21.22;41.77;99552.66;4469751;28;20519;-50
2023/12/26 05:03:50;;;;;;;0.10;0.10;;;;;;;21.21;41.45;99562.50;4473764;28;20030;-48
2023/12/26 05:06:01;;;;;;;0.10;0.10;;;;;;;21.23;41.43;99564.97;4474223;28;20047;-49
2023/12/26 05:08:11;;;;;;;0.10;0.10;;;;;;;21.22;41.52;99567.00;4473531;28;20035;-50
2023/12/26 05:10:22;;;;;;;0.10;0.10;;;;;;;21.21;41.81;99576.84;4471937;28;20047;-48
2023/12/26 05:12:32;;;;;;;0.10;0.10;;;;;;;21.19;41.60;99576.41;4471892;28;20043;-48
2023/12/26 05:14:42;;;;;;;0.10;0.10;;;;;;;21.21;41.66;99596.09;4472733;28;20117;-50
2023/12/26 05:16:54;;;;;;;0.10;0.10;;;;;;;21.21;41.63;99599.81;4473485;28;20077;-49
2023/12/26 05:19:05;;;;;;;0.00;0.00;;;;;;;21.21;41.79;99599.81;4471735;28;20038;-49
2023/12/26 05:21:20;;;;;;;0.10;0.10;;;;;;;21.21;42.06;99602.66;4487994;28;20585;-49
2023/12/26 05:23:30;;;;;;;0.15;0.00;;;;;;;21.21;41.78;99610.44;4488074;28;20026;-49
2023/12/26 05:25:41;;;;;;;0.43;0.10;;;;;;;21.20;41.56;99609.63;4487587;28;20042;-48
2023/12/26 05:27:51;;;;;;;0.10;0.10;;;;;;;21.21;41.39;99616.19;4472584;28;20408;-50
2023/12/26 05:30:02;;;;;;;0.45;0.10;;;;;;;21.20;40.76;99605.94;4487950;28;21099;-49
2023/12/26 05:32:13;;;;;;;0.10;0.10;;;;;;;21.21;40.67;99613.31;4472290;28;20055;-49
2023/12/26 05:34:23;;;;;;;0.13;0.08;;;;;;;21.21;40.35;99614.16;4487757;28;20034;-50
2023/12/26 05:36:34;;;;;;;0.30;0.10;;;;;;;21.21;40.43;99617.03;4472032;28;20102;-49
2023/12/26 05:38:44;;;;;;;0.40;0.20;;;;;;;21.20;40.36;99629.69;4471585;28;20038;-50
2023/12/26 05:40:55;;;;;;;0.55;0.17;;;;;;;21.20;40.18;99632.56;4472750;28;20096;-50
2023/12/26 05:43:05;;;;;;;0.08;0.08;;;;;;;21.20;40.31;99635.44;4488045;28;20090;-48
2023/12/26 05:45:17;;;;;;;0.28;0.25;;;;;;;21.19;40.42;99648.16;4473980;28;20038;-48
2023/12/26 05:47:27;;;;;;;0.10;0.10;;;;;;;21.19;40.40;99651.03;4471124;28;20042;-50
2023/12/26 05:49:37;;;;;;;0.10;0.10;;;;;;;21.20;40.55;99654.72;4470340;28;20095;-48
2023/12/26 05:51:48;;;;;;;0.32;0.10;;;;;;;21.19;40.60;99679.72;4487531;28;20027;-49
2023/12/26 05:53:58;;;;;;;0.40;0.10;;;;;;;21.18;40.31;99672.34;4469010;28;20047;-49
2023/12/26 05:56:09;;;;;;;0.22;0.10;;;;;;;21.18;40.08;99683.81;4455188;28;20126;-49
2023/12/26 05:58:19;;;;;;;0.15;0.10;;;;;;;21.19;39.98;99684.63;4474454;28;20039;-49
2023/12/26 06:00:30;;;;;;;0.30;0.20;;;;;;;21.19;40.25;99696.09;4471294;28;20118;-48
2023/12/26 06:02:40;;;;;;;0.20;0.20;;;;;;;21.18;40.38;99695.28;4473142;28;20089;-49
2023/12/26 06:04:51;;;;;;;0.77;0.20;;;;;;;21.18;40.07;99703.91;4472658;28;20039;-48
2023/12/26 06:07:02;;;;;;;0.52;0.20;;;;;;;21.18;39.83;99698.16;4471347;28;20058;-50
2023/12/26 06:09:16;;;;;;;0.47;0.28;;;;;;;21.19;40.09;99701.84;4472211;28;20494;-49
2023/12/26 06:11:27;;;;;;;0.20;0.10;;;;;;;21.17;40.13;99705.09;4472483;28;20043;-49
2023/12/26 06:13:37;;;;;;;0.20;0.10;;;;;;;21.19;40.09;99713.31;4486529;28;20597;-48
2023/12/26 06:15:49;;;;;;;0.20;0.20;;;;;;;21.18;39.95;99718.25;4471275;28;20054;-50
2023/12/26 06:17:59;;;;;;;0.32;0.22;;;;;;;21.18;39.90;99711.69;4487133;28;20034;-48
2023/12/26 06:20:10;;;;;;;0.32;0.22;;;;;;;21.17;40.00;99716.59;4471846;28;20035;-49
2023/12/26 06:22:21;;;;;;;0.10;0.10;;;;;;;21.18;39.83;99718.25;4454693;28;20035;-49
2023/12/26 06:24:31;;;;;;;0.20;0.10;;;;;;;21.18;39.88;99720.28;4472524;28;20691;-49
2023/12/26 06:26:42;;;;;;;0.38;0.20;;;;;;;21.18;39.89;99711.69;4470579;28;20086;-48
2023/12/26 06:28:53;;;;;;;0.43;0.20;;;;;;;21.17;40.01;99722.31;4471439;28;20949;-48
2023/12/26 06:31:04;;;;;;;0.40;0.20;;;;;;;21.17;39.55;99721.53;4471430;28;20070;-52
2023/12/26 06:33:14;;;;;;;0.38;0.20;;;;;;;21.17;39.94;99728.06;4486975;28;20050;-50
2023/12/26 06:35:25;;;;;;;0.20;0.20;;;;;;;21.17;39.86;99728.06;4472315;28;20055;-49
2023/12/26 06:37:35;;;;;;;0.28;0.20;;;;;;;21.18;39.90;99741.22;4486845;28;20533;-50
2023/12/26 06:39:46;;;;;;;0.30;0.20;;;;;;;21.18;39.50;99751.84;4486770;28;20035;-48
2023/12/26 06:41:56;;;;;;;0.35;0.20;;;;;;;21.17;39.43;99762.50;4470815;28;20039;-50
2023/12/26 06:44:07;;;;;;;0.20;0.20;;;;;;;21.17;39.50;99773.97;4470850;28;20041;-48
2023/12/26 06:46:18;;;;;;;0.40;0.30;;;;;;;21.18;39.33;99769.06;4470544;28;20565;-48
2023/12/26 06:48:28;;;;;;;0.47;0.28;;;;;;;21.17;39.25;99779.72;4471217;28;20056;-49
2023/12/26 06:50:39;;;;;;;0.77;0.25;;;;;;;21.17;39.06;99787.53;4486219;28;20042;-48
2023/12/26 06:52:49;;;;;;;0.30;0.20;;;;;;;21.16;39.30;99792.41;4470307;28;20035;-48
2023/12/26 06:55:00;;;;;;;0.43;0.10;;;;;;;21.15;39.15;99802.25;4472051;28;20039;-48
2023/12/26 06:57:16;;;;;;;0.47;0.25;;;;;;;21.15;38.91;99808.00;4472716;28;20476;-48
2023/12/26 06:59:27;;;;;;;;;;;;;;;21.14;39.00;99791.97;4487339;28;20034;-48
2023/12/26 07:01:37;;;;;;;0.38;0.25;;;;;;;21.14;39.06;99809.19;4472619;28;19918;-48
2023/12/26 07:03:48;;;;;;;0.43;0.30;;;;;;;21.14;38.71;99822.72;4470464;28;20031;-50
2023/12/26 07:05:58;;;;;;;0.50;0.22;;;;;;;21.13;38.91;99824.78;4471748;28;20035;-49
2023/12/26 07:08:09;;;;;;;0.43;0.30;;;;;;;21.13;38.51;99823.94;4471397;28;20043;-48
2023/12/26 07:10:19;;;;;;;0.55;0.20;;;;;;;21.13;38.43;99824.78;4471905;28;20487;-49
2023/12/26 07:12:30;;;;;;;0.40;0.20;;;;;;;21.13;38.20;99830.50;4471637;28;20042;-50
2023/12/26 07:14:40;;;;;;;0.20;0.20;;;;;;;21.14;38.65;99837.06;4471954;28;20126;-48
2023/12/26 07:16:50;;;;;;;0.60;0.20;;;;;;;21.14;38.45;99835.03;4471732;28;20050;-48
2023/12/26 07:19:02;;;;;;;0.30;0.30;;;;;;;21.14;38.16;99837.06;4471767;28;20042;-49
2023/12/26 07:21:14;;;;;;;0.43;0.30;;;;;;;21.14;38.24;99849.38;4486870;28;20030;-51
2023/12/26 07:23:25;;;;;;;0.70;0.35;;;;;;;21.14;38.51;99860.00;4471349;28;20094;-48
2023/12/26 07:25:37;;;;;;;0.30;0.30;;;;;;;21.14;38.49;99866.59;4470454;28;20129;-49
2023/12/26 07:27:47;;;;;;;0.82;0.40;;;;;;;21.14;38.19;99869.47;4471514;28;20026;-48
2023/12/26 07:29:58;;;;;;;0.65;0.30;;;;;;;21.13;38.10;99876.44;4471596;28;20496;-49
2023/12/26 07:32:08;;;;;;;0.30;0.22;;;;;;;21.13;38.22;99885.03;4471623;28;20031;-48
2023/12/26 07:34:19;;;;;;;0.57;0.30;;;;;;;21.14;38.06;99888.72;4471376;28;20039;-49
2023/12/26 07:36:29;;;;;;;0.40;0.40;;;;;;;21.13;37.89;99885.03;4471060;28;20026;-48
2023/12/26 07:38:40;;;;;;;0.43;0.25;;;;;;;21.14;38.33;99895.28;4471705;28;20241;-49
2023/12/26 07:40:50;;;;;;;0.40;0.30;;;;;;;21.12;37.95;99891.97;4470999;28;20490;-51
2023/12/26 07:43:01;;;;;;;1.13;0.40;;;;;;;21.13;38.49;99902.25;4471676;28;20042;-49
2023/12/26 07:45:12;;;;;;;0.30;0.20;;;;;;;21.13;37.85;99902.25;4471523;28;20027;-49
2023/12/26 07:47:22;;;;;;;0.20;0.20;;;;;;;21.15;37.57;99910.47;4470756;28;20042;-50
2023/12/26 07:49:33;;;;;;;0.85;0.40;;;;;;;21.15;37.68;99904.72;4469742;28;20035;-50
2023/12/26 07:51:45;;;;;;;2.10;0.38;;;;;;;21.13;37.98;99902.25;4471514;28;20089;-48
2023/12/26 07:53:55;;;;;;;0.45;0.30;;;;;;;21.14;37.25;99912.50;4471090;28;21241;-48
2023/12/26 07:56:06;;;;;;;0.55;0.40;;;;;;;21.14;36.93;99917.41;4470442;28;20067;-48
2023/12/26 07:58:16;;;;;;;0.43;0.30;;;;;;;21.16;37.06;99932.19;4470734;28;20074;-48
2023/12/26 08:00:27;;;;;;;0.47;0.30;;;;;;;21.14;36.86;99929.72;4471024;28;20097;-48
2023/12/26 08:02:37;;;;;;;0.50;0.30;;;;;;;21.15;37.22;99930.56;4471112;28;20030;-49
2023/12/26 08:04:48;;;;;;;0.65;0.30;;;;;;;21.15;36.82;99936.31;4471017;28;20428;-49
2023/12/26 08:06:59;;;;;;;0.55;0.40;;;;;;;21.15;36.93;99948.63;4470863;28;20039;-49
2023/12/26 08:09:09;;;;;;;0.30;0.30;;;;;;;21.14;36.69;99952.69;4471158;28;20049;-48
2023/12/26 08:11:21;;;;;;;0.60;0.40;;;;;;;21.14;37.02;99954.72;4470732;28;20065;-50
2023/12/26 08:13:32;;;;;;;0.50;0.30;;;;;;;21.14;36.84;99955.53;4470823;28;20089;-48
2023/12/26 08:15:42;;;;;;;0.85;0.35;;;;;;;21.15;36.65;99971.56;4471306;28;20092;-49
2023/12/26 08:17:53;;;;;;;0.30;0.30;;;;;;;21.16;36.49;99970.34;4468699;28;20027;-49
2023/12/26 08:20:04;;;;;;;1.05;0.30;;;;;;;21.16;36.51;99978.97;4470656;28;20450;-52
2023/12/26 08:22:14;;;;;;;0.65;0.30;;;;;;;21.18;36.40;99982.28;4471023;28;20035;-49
2023/12/26 08:24:24;;;;;;;0.65;0.38;;;;;;;21.19;36.95;99986.78;4470630;28;20090;-48
2023/12/26 08:26:35;;;;;;;0.47;0.20;;;;;;;21.19;36.52;99994.56;4470543;28;20121;-49
2023/12/26 08:28:46;;;;;;;0.57;0.30;;;;;;;21.19;36.53;99994.56;4470667;28;20026;-49
2023/12/26 08:30:56;;;;;;;1.15;0.35;;;;;;;21.19;36.79;100004.00;4471172;28;20317;-48
2023/12/26 08:33:07;;;;;;;0.47;0.38;;;;;;;21.18;36.97;100010.97;4470397;28;20047;-48
2023/12/26 08:35:17;;;;;;;0.40;0.40;;;;;;;21.21;37.00;100015.09;4470994;28;20047;-49
2023/12/26 08:37:28;;;;;;;0.40;0.30;;;;;;;21.19;36.54;100021.22;4471644;28;20145;-48
2023/12/26 08:39:38;;;;;;;1.10;0.32;;;;;;;21.20;36.90;100024.94;4473905;28;20133;-48
2023/12/26 08:41:49;;;;;;;0.75;0.40;;;;;;;21.19;36.65;100035.59;4474079;28;20472;-48
2023/12/26 08:43:59;;;;;;;0.75;0.55;;;;;;;21.20;36.58;100037.22;4473847;28;20039;-52
2023/12/26 08:46:10;;;;;;;1.13;0.60;;;;;;;21.21;36.17;100035.19;4473934;28;20122;-49
2023/12/26 08:48:20;;;;;;;1.15;0.40;;;;;;;21.19;35.87;100035.59;4473326;28;20034;-50
2023/12/26 08:50:32;;;;;;;1.25;0.40;;;;;;;21.20;35.91;100037.22;4473620;28;21215;-53
2023/12/26 08:52:42;;;;;;;0.50;0.30;;;;;;;21.20;35.58;100033.56;4473691;28;20159;-49
2023/12/26 08:54:52;;;;;;;1.45;0.50;;;;;;;21.19;35.49;100035.59;4473639;28;20121;-50
2023/12/26 08:57:03;;;;;;;0.73;0.40;;;;;;;21.20;35.77;100048.72;4473471;28;20058;-52
2023/12/26 08:59:14;;;;;;;1.10;0.38;;;;;;;21.20;35.41;100060.19;4473560;28;20488;-52
2023/12/26 09:01:24;;;;;;;0.45;0.30;;;;;;;21.20;35.56;100068.78;4473681;28;20617;-50
2023/12/26 09:03:35;;;;;;;1.15;0.40;;;;;;;21.17;37.23;100078.19;4473212;28;20035;-50
2023/12/26 09:05:45;;;;;;;3.55;0.70;;;;;;;21.15;38.98;100086.38;4473505;28;20035;-50
2023/12/26 09:07:56;;;;;;;2.17;0.65;;;;;;;21.17;37.32;100077.38;4473286;28;20027;-53
2023/12/26 09:10:07;;;;;;;0.47;0.35;;;;;;;21.20;35.22;100096.69;4473304;28;20049;-50
2023/12/26 09:12:18;;;;;;;0.38;0.30;;;;;;;21.20;35.39;100083.16;4473457;28;20853;-54
2023/12/26 09:14:28;;;;;;;0.73;0.40;;;;;;;21.22;34.80;100099.97;4473488;28;20125;-50
2023/12/26 09:16:40;;;;;;;0.90;0.30;;;;;;;21.22;34.62;100103.69;4473262;28;20496;-55
2023/12/26 09:18:50;;;;;;;1.30;0.40;;;;;;;21.23;34.48;100098.78;4473178;28;20133;-54
2023/12/26 09:21:01;;;;;;;1.30;0.30;;;;;;;21.24;34.53;100101.28;4473539;28;20137;-54
2023/12/26 09:23:12;;;;;;;1.02;0.50;;;;;;;21.24;34.74;100107.00;4473402;28;20171;-54
2023/12/26 09:25:23;;;;;;;1.00;0.40;;;;;;;21.25;34.58;100110.72;4473308;28;20042;-54
2023/12/26 09:27:34;;;;;;;0.70;0.35;;;;;;;21.25;34.91;100119.34;4473208;28;20080;-51
2023/12/26 09:29:44;;;;;;;0.90;0.40;;;;;;;21.24;34.79;100121.38;4472661;28;20035;-54
2023/12/26 09:31:55;;;;;;;1.15;0.40;;;;;;;21.25;34.66;100131.63;4472886;28;20019;-50
2023/12/26 09:34:05;;;;;;;0.70;0.40;;;;;;;21.25;34.76;100137.38;4473377;28;20034;-54
2023/12/26 09:36:16;;;;;;;1.27;0.40;;;;;;;21.25;34.51;100142.31;4473210;28;20126;-55
2023/12/26 09:38:26;;;;;;;0.80;0.50;;;;;;;21.26;34.51;100143.94;4473170;28;20361;-50
2023/12/26 09:40:37;;;;;;;1.00;0.30;;;;;;;21.26;34.32;100146.81;4473389;28;20043;-50
2023/12/26 09:42:47;;;;;;;0.73;0.38;;;;;;;21.26;34.83;100150.53;4473108;28;20117;-50
2023/12/26 09:44:59;;;;;;;0.90;0.40;;;;;;;21.27;34.32;100162.81;4473275;28;20027;-51
2023/12/26 09:47:10;;;;;;;1.05;0.60;;;;;;;21.26;34.59;100156.25;4472550;28;20105;-51
2023/12/26 09:49:21;;;;;;;1.15;0.60;;;;;;;21.25;34.51;100160.34;4472044;28;20039;-50
2023/12/26 09:51:37;;;;;;;0.77;0.43;;;;;;;21.27;34.25;100162.81;4473286;28;20427;-51
2023/12/26 09:53:55;;;;;;;0.93;0.40;;;;;;;21.27;34.16;100162.81;4472699;28;20472;-51
2023/12/26 09:56:08;;;;;;;0.80;0.40;;;;;;;21.25;33.82;100157.47;4473177;28;20039;-50
2023/12/26 09:58:19;;;;;;;1.08;0.40;;;;;;;21.26;34.08;100156.25;4472714;28;20027;-50
2023/12/26 10:00:31;;;;;;;1.67;0.50;;;;;;;21.26;33.84;100159.13;4472795;28;20057;-50
2023/12/26 10:02:42;;;;;;;1.48;0.50;;;;;;;21.25;33.55;100160.34;4472853;28;20027;-53
2023/12/26 10:04:53;;;;;;;1.17;0.40;;;;;;;21.21;35.08;100165.19;4471262;28;20027;-50
2023/12/26 10:07:03;;;;;;;2.20;0.68;;;;;;;21.18;37.69;100171.69;4472648;28;20034;-50
2023/12/26 10:09:14;;;;;;;1.40;0.40;;;;;;;21.18;36.26;100180.31;4473231;28;20472;-50
2023/12/26 10:11:26;;;;;;;1.60;0.60;;;;;;;21.18;37.78;100176.59;4472824;28;20049;-53
2023/12/26 10:13:52;;;;;;;0.77;0.40;;;;;;;21.21;34.28;100175.84;4472670;28;20035;-50